Time;durP1;ratioP1;P1;durP2;ratioP2;P2;SDS_P1;SDS_P2;PMS_P1;PMS_P2;Temp;Humidity;BMP_temperature;BMP_pressure;BME280_temperature;BME280_humidity;BME280_pressure;Samples;Min_cycle;Max_cycle;Signal;HPM_P1;HPM_P2
2023/07/06 00:01:02;;;;;;;2.80;2.13;;;15.70;99.90;;;;;;5016448;28;20034;-70
2023/07/06 00:03:28;;;;;;;5.97;1.67;;;15.70;99.90;;;;;;5016196;28;20025;-70
2023/07/06 00:05:54;;;;;;;4.82;1.70;;;15.80;99.90;;;;;;5016807;28;20331;-70
2023/07/06 00:08:20;;;;;;;3.55;1.55;;;15.80;99.90;;;;;;5016249;28;20112;-70
2023/07/06 00:10:49;;;;;;;2.42;1.55;;;15.70;99.90;;;;;;5016758;28;20026;-70
2023/07/06 00:13:15;;;;;;;3.33;1.73;;;15.60;99.90;;;;;;5019808;28;20033;-70
2023/07/06 00:15:42;;;;;;;5.43;1.85;;;15.40;99.90;;;;;;5019914;28;20120;-70
2023/07/06 00:18:09;;;;;;;3.35;1.48;;;15.40;99.90;;;;;;5020024;28;20018;-70
2023/07/06 00:20:37;;;;;;;7.40;1.90;;;15.40;99.90;;;;;;5020852;28;20026;-70
2023/07/06 00:23:04;;;;;;;2.92;1.45;;;15.50;99.90;;;;;;5020779;28;20034;-70
2023/07/06 00:25:30;;;;;;;2.05;1.35;;;15.60;99.90;;;;;;5019828;28;20022;-70
2023/07/06 00:27:58;;;;;;;7.70;1.45;;;15.60;99.90;;;;;;5020627;28;20041;-70
2023/07/06 00:30:40;;;;;;;1.65;1.52;;;15.60;99.90;;;;;;5020250;28;20030;-70
2023/07/06 00:33:07;;;;;;;2.88;1.65;;;15.50;99.90;;;;;;5020487;28;20025;-70
2023/07/06 00:35:34;;;;;;;5.15;1.60;;;15.70;99.90;;;;;;5020316;28;20026;-70
2023/07/06 00:37:59;;;;;;;4.03;1.80;;;15.80;99.90;;;;;;5019363;28;20029;-70
2023/07/06 00:40:31;;;;;;;4.40;2.03;;;15.80;99.90;;;;;;5019314;28;20034;-70
2023/07/06 00:42:56;;;;;;;6.45;1.83;;;15.70;99.90;;;;;;5019368;28;20026;-70
2023/07/06 00:45:22;;;;;;;6.53;1.70;;;15.60;99.90;;;;;;5019157;28;20026;-70
2023/07/06 00:47:57;;;;;;;3.75;1.60;;;15.50;99.90;;;;;;5019232;28;20026;-70
2023/07/06 00:50:27;;;;;;;3.35;1.67;;;15.40;99.90;;;;;;5019317;28;20030;-70
2023/07/06 00:53:09;;;;;;;3.42;1.50;;;15.40;99.90;;;;;;5019356;28;20060;-70
2023/07/06 00:55:40;;;;;;;3.00;1.60;;;15.30;99.90;;;;;;5019519;28;20022;-70
2023/07/06 00:58:12;;;;;;;3.05;1.50;;;15.40;99.90;;;;;;5020117;28;20022;-70
2023/07/06 01:00:39;;;;;;;3.85;2.35;;;15.50;99.90;;;;;;5020078;28;20033;-70
2023/07/06 01:03:06;;;;;;;3.35;1.75;;;15.50;99.90;;;;;;5020199;28;20100;-70
2023/07/06 01:05:32;;;;;;;4.15;2.13;;;15.50;99.90;;;;;;5019465;28;20049;-70
2023/07/06 01:08:07;;;;;;;3.40;1.60;;;15.50;99.90;;;;;;5019207;28;20026;-70
2023/07/06 01:10:34;;;;;;;2.42;1.42;;;15.40;99.90;;;;;;5020339;28;20033;-70
2023/07/06 01:13:00;;;;;;;3.75;1.98;;;15.20;99.90;;;;;;5019537;28;20061;-70
2023/07/06 01:15:31;;;;;;;2.60;1.70;;;15.20;99.90;;;;;;5018843;28;20029;-70
2023/07/06 01:18:07;;;;;;;4.90;1.90;;;15.10;99.90;;;;;;5019900;28;20033;-69
2023/07/06 01:20:45;;;;;;;2.65;1.73;;;15.10;99.90;;;;;;5019753;28;20030;-70
2023/07/06 01:23:43;;;;;;;4.93;2.83;;;15.10;99.90;;;;;;5018221;28;20030;-70
2023/07/06 01:26:49;;;;;;;3.45;1.50;;;15.10;99.90;;;;;;5018609;28;20026;-70
2023/07/06 01:29:20;;;;;;;6.78;1.73;;;15.10;99.90;;;;;;4978752;28;20124;-70
2023/07/06 01:31:52;;;;;;;3.10;1.75;;;15.20;99.90;;;;;;5018609;28;20026;-70
2023/07/06 01:34:41;;;;;;;4.10;1.98;;;15.20;99.90;;;;;;5019785;28;20026;-70
2023/07/06 01:37:38;;;;;;;2.25;1.60;;;15.10;99.90;;;;;;5019510;28;20022;-70
2023/07/06 01:40:09;;;;;;;2.38;1.80;;;14.90;99.90;;;;;;5019556;28;20036;-70
2023/07/06 01:42:36;;;;;;;2.58;1.63;;;14.90;99.90;;;;;;5019392;28;20026;-70
2023/07/06 01:45:05;;;;;;;2.80;1.90;;;14.90;99.90;;;;;;5018248;28;20030;-70
2023/07/06 01:47:34;;;;;;;5.85;2.00;;;14.90;99.90;;;;;;5018898;28;20025;-70
2023/07/06 01:50:02;;;;;;;3.05;2.10;;;14.80;99.90;;;;;;5018179;28;20110;-70
2023/07/06 01:52:27;;;;;;;3.30;2.22;;;14.80;99.90;;;;;;5018631;28;20022;-70
2023/07/06 01:55:20;;;;;;;4.75;1.50;;;14.80;99.90;;;;;;5018271;28;20109;-70
2023/07/06 01:58:07;;;;;;;4.28;2.28;;;14.80;99.90;;;;;;5017883;28;20022;-70
2023/07/06 02:00:35;;;;;;;4.43;2.05;;;14.80;99.90;;;;;;5018912;28;20046;-70
2023/07/06 02:03:05;;;;;;;8.18;2.20;;;14.80;99.90;;;;;;5018374;28;20033;-70
2023/07/06 02:05:32;;;;;;;6.00;2.17;;;14.80;99.90;;;;;;5017928;28;20032;-70
2023/07/06 02:07:58;;;;;;;6.90;2.38;;;14.70;99.90;;;;;;5017937;28;20033;-70
2023/07/06 02:10:24;;;;;;;3.80;1.77;;;14.60;99.90;;;;;;5017938;28;20076;-70
2023/07/06 02:12:49;;;;;;;3.80;1.73;;;14.50;99.90;;;;;;5018008;28;20026;-70
2023/07/06 02:15:16;;;;;;;3.40;1.70;;;14.50;99.90;;;;;;5018586;28;20022;-70
2023/07/06 02:17:44;;;;;;;4.78;1.90;;;14.60;99.90;;;;;;5018480;28;20022;-70
2023/07/06 02:20:10;;;;;;;3.42;2.10;;;14.60;99.90;;;;;;5018268;28;20026;-70
2023/07/06 02:22:36;;;;;;;2.40;1.70;;;14.60;99.90;;;;;;5017506;28;20029;-70
2023/07/06 02:25:01;;;;;;;2.22;1.70;;;14.40;99.90;;;;;;5017707;28;20021;-70
2023/07/06 02:27:27;;;;;;;4.75;1.92;;;14.30;99.90;;;;;;5018302;28;20052;-70
2023/07/06 02:29:52;;;;;;;2.85;1.70;;;14.30;99.90;;;;;;5017345;28;20049;-70
2023/07/06 02:32:18;;;;;;;3.13;1.73;;;14.30;99.90;;;;;;5018078;28;20026;-70
2023/07/06 02:34:45;;;;;;;4.03;2.00;;;14.30;99.90;;;;;;5018184;28;20028;-68
2023/07/06 02:37:11;;;;;;;3.67;1.88;;;14.30;99.90;;;;;;5017118;28;20030;-68
2023/07/06 02:39:36;;;;;;;3.85;2.05;;;14.20;99.90;;;;;;5018241;28;20026;-68
2023/07/06 02:42:03;;;;;;;3.55;1.85;;;14.10;99.90;;;;;;5017536;28;20030;-68
2023/07/06 02:44:28;;;;;;;2.38;1.80;;;14.10;99.90;;;;;;5018266;28;20022;-68
2023/07/06 02:46:54;;;;;;;3.78;2.35;;;14.20;99.90;;;;;;5017306;28;20068;-68
2023/07/06 02:49:20;;;;;;;6.13;3.00;;;14.30;99.90;;;;;;5017075;28;20049;-68
2023/07/06 02:51:46;;;;;;;4.75;2.58;;;14.30;99.90;;;;;;5017771;28;20029;-68
2023/07/06 02:54:15;;;;;;;7.32;2.47;;;14.20;99.90;;;;;;5017020;28;20033;-68
2023/07/06 02:56:41;;;;;;;3.28;1.70;;;14.20;99.90;;;;;;5017007;28;20049;-68
2023/07/06 02:59:08;;;;;;;2.88;2.13;;;14.20;99.90;;;;;;5017754;28;20026;-68
2023/07/06 03:01:34;;;;;;;2.55;1.75;;;14.20;99.90;;;;;;5018128;28;20030;-67
2023/07/06 03:04:00;;;;;;;5.13;1.85;;;14.10;99.90;;;;;;5017050;28;20117;-68
2023/07/06 03:06:25;;;;;;;6.95;1.90;;;14.00;99.90;;;;;;5016726;28;20129;-68
2023/07/06 03:08:51;;;;;;;4.25;2.40;;;14.00;99.90;;;;;;5016598;28;20071;-68
2023/07/06 03:11:17;;;;;;;5.90;1.92;;;13.90;99.90;;;;;;5016999;28;20053;-68
2023/07/06 03:13:42;;;;;;;4.03;1.85;;;13.80;99.90;;;;;;5017557;28;20018;-68
2023/07/06 03:16:08;;;;;;;2.75;1.73;;;13.80;99.90;;;;;;5017508;28;20081;-68
2023/07/06 03:18:34;;;;;;;4.00;2.00;;;13.70;99.90;;;;;;5016833;28;20017;-68
2023/07/06 03:21:02;;;;;;;3.25;1.80;;;13.60;99.90;;;;;;5016507;28;20064;-68
2023/07/06 03:23:29;;;;;;;3.75;1.67;;;13.70;99.90;;;;;;5017658;28;20022;-68
2023/07/06 03:25:55;;;;;;;8.65;2.40;;;13.60;99.90;;;;;;5017213;28;20026;-68
2023/07/06 03:28:23;;;;;;;2.50;1.73;;;13.60;99.90;;;;;;5016673;28;20033;-68
2023/07/06 03:30:57;;;;;;;6.55;1.90;;;13.60;99.90;;;;;;5017422;28;20029;-68
2023/07/06 03:33:24;;;;;;;3.33;2.33;;;13.70;99.90;;;;;;5016428;28;20109;-68
2023/07/06 03:35:54;;;;;;;4.65;2.20;;;13.70;99.90;;;;;;5016267;28;20026;-68
2023/07/06 03:38:21;;;;;;;3.90;2.03;;;13.70;99.90;;;;;;5017617;28;20028;-68
2023/07/06 03:40:50;;;;;;;2.70;1.85;;;13.50;99.90;;;;;;5016854;28;20022;-68
2023/07/06 03:43:16;;;;;;;2.10;1.80;;;13.40;99.90;;;;;;5016769;28;20062;-68
2023/07/06 03:45:46;;;;;;;3.08;2.28;;;13.50;99.90;;;;;;5016671;28;20037;-68
2023/07/06 03:48:12;;;;;;;3.05;2.10;;;13.50;99.90;;;;;;5016140;28;20026;-68
2023/07/06 03:50:37;;;;;;;3.45;1.90;;;13.60;99.90;;;;;;5016514;28;20025;-68
2023/07/06 03:53:03;;;;;;;4.38;1.90;;;13.70;99.90;;;;;;5016123;28;20018;-68
2023/07/06 03:55:28;;;;;;;6.35;2.30;;;13.70;99.90;;;;;;5016227;28;20049;-68
2023/07/06 03:57:54;;;;;;;4.57;2.67;;;13.70;99.90;;;;;;5016100;28;20026;-68
2023/07/06 04:00:24;;;;;;;4.13;2.38;;;13.80;99.90;;;;;;5015987;28;20034;-68
2023/07/06 04:02:52;;;;;;;5.55;2.25;;;13.80;99.90;;;;;;5017216;28;20022;-67
2023/07/06 04:05:22;;;;;;;6.68;2.25;;;13.80;99.90;;;;;;5017104;28;20033;-68
2023/07/06 04:07:52;;;;;;;4.97;2.17;;;13.80;99.90;;;;;;5016770;28;20117;-68
2023/07/06 04:10:19;;;;;;;4.03;2.80;;;13.50;99.90;;;;;;5016547;28;20047;-67
2023/07/06 04:12:45;;;;;;;3.90;1.88;;;13.30;99.90;;;;;;5015949;28;20037;-68
2023/07/06 04:15:10;;;;;;;3.58;2.28;;;13.30;99.90;;;;;;5017074;28;20026;-68
2023/07/06 04:17:37;;;;;;;3.63;2.22;;;13.40;99.90;;;;;;5015873;28;20026;-68
2023/07/06 04:20:18;;;;;;;4.15;2.30;;;13.40;99.90;;;;;;5016066;28;20022;-68
2023/07/06 04:22:48;;;;;;;3.72;2.20;;;13.40;99.90;;;;;;5016727;28;20021;-68
2023/07/06 04:25:21;;;;;;;2.95;2.00;;;13.30;99.90;;;;;;5016442;28;20058;-68
2023/07/06 04:27:47;;;;;;;7.55;3.97;;;13.30;99.90;;;;;;5016129;28;20026;-68
2023/07/06 04:30:14;;;;;;;5.63;2.80;;;13.40;99.90;;;;;;5016667;28;20029;-68
2023/07/06 04:32:41;;;;;;;2.67;2.13;;;13.40;99.90;;;;;;5016497;28;20029;-68
2023/07/06 04:35:11;;;;;;;6.97;2.75;;;13.50;99.90;;;;;;5016203;28;20022;-68
2023/07/06 04:37:37;;;;;;;7.10;2.53;;;13.50;99.90;;;;;;5017000;28;20037;-68
2023/07/06 04:40:13;;;;;;;2.95;2.17;;;13.50;99.90;;;;;;5015721;28;20018;-68
2023/07/06 04:42:40;;;;;;;4.90;2.25;;;13.60;99.90;;;;;;5016468;28;20113;-68
2023/07/06 04:45:09;;;;;;;4.28;2.67;;;13.70;99.90;;;;;;5017033;28;20018;-68
2023/07/06 04:47:35;;;;;;;4.90;2.65;;;13.70;99.90;;;;;;5015577;28;20018;-68
2023/07/06 04:50:02;;;;;;;3.17;2.15;;;13.70;99.90;;;;;;5015678;28;20072;-68
2023/07/06 04:52:28;;;;;;;5.80;2.58;;;13.60;99.90;;;;;;5015525;28;20049;-68
2023/07/06 04:54:53;;;;;;;3.72;2.53;;;13.70;99.90;;;;;;5015610;28;20018;-68
2023/07/06 04:57:19;;;;;;;4.95;2.50;;;13.70;99.90;;;;;;5016254;28;20045;-68
2023/07/06 04:59:45;;;;;;;3.38;2.42;;;13.80;99.90;;;;;;5019132;28;20096;-68
2023/07/06 05:02:10;;;;;;;4.88;2.80;;;14.00;99.90;;;;;;5062375;23;20041;-67
2023/07/06 05:04:40;;;;;;;3.35;2.30;;;14.10;99.90;;;;;;5039718;28;20047;-67
2023/07/06 05:07:07;;;;;;;4.22;2.42;;;14.30;99.90;;;;;;5039121;28;20025;-67
2023/07/06 05:09:32;;;;;;;4.60;2.50;;;14.40;99.90;;;;;;5039065;28;20029;-67
2023/07/06 05:11:58;;;;;;;4.78;3.00;;;14.50;99.90;;;;;;5038522;28;20032;-67
2023/07/06 05:14:24;;;;;;;6.57;3.33;;;14.70;99.90;;;;;;5039571;28;20099;-67
2023/07/06 05:16:49;;;;;;;8.55;2.78;;;14.80;99.90;;;;;;5039077;28;20085;-67
2023/07/06 05:19:15;;;;;;;5.20;3.40;;;14.90;99.90;;;;;;5038994;28;20018;-67
2023/07/06 05:21:41;;;;;;;5.38;2.60;;;14.90;99.90;;;;;;5038636;28;20045;-67
2023/07/06 05:24:07;;;;;;;5.65;2.95;;;14.90;99.90;;;;;;5038761;28;20029;-67
2023/07/06 05:26:32;;;;;;;8.07;3.10;;;14.80;99.90;;;;;;5038874;28;20028;-67
2023/07/06 05:28:58;;;;;;;6.88;2.80;;;14.90;99.90;;;;;;5039352;28;20048;-67
2023/07/06 05:31:23;;;;;;;5.28;2.70;;;14.90;99.90;;;;;;5038205;28;20029;-68
2023/07/06 05:33:49;;;;;;;3.10;2.45;;;14.80;99.90;;;;;;5038690;28;20022;-69
2023/07/06 05:36:15;;;;;;;5.78;2.80;;;14.80;99.90;;;;;;5038161;28;20022;-68
2023/07/06 05:38:40;;;;;;;3.42;2.60;;;15.00;99.90;;;;;;5038276;28;20022;-68
2023/07/06 05:41:06;;;;;;;5.95;2.70;;;15.00;99.90;;;;;;5038007;28;20017;-68
2023/07/06 05:43:31;;;;;;;7.95;2.40;;;15.00;99.90;;;;;;5038160;28;20124;-68
2023/07/06 05:45:57;;;;;;;5.72;2.58;;;15.20;99.90;;;;;;5039068;28;20029;-68
2023/07/06 05:48:22;;;;;;;10.73;3.13;;;15.20;99.90;;;;;;5038056;28;20030;-68
2023/07/06 05:50:48;;;;;;;6.90;2.88;;;15.30;99.90;;;;;;5038328;28;20029;-68
2023/07/06 05:53:13;;;;;;;5.30;2.47;;;15.30;99.90;;;;;;5038875;28;20017;-68
2023/07/06 05:55:43;;;;;;;3.13;2.42;;;15.40;99.90;;;;;;5038791;28;20048;-68
2023/07/06 05:58:13;;;;;;;5.15;2.80;;;15.40;99.90;;;;;;5037759;28;20045;-68
2023/07/06 06:00:39;;;;;;;5.97;2.75;;;15.60;99.90;;;;;;5038485;28;20026;-67
2023/07/06 06:03:05;;;;;;;4.50;2.47;;;15.50;99.90;;;;;;5037830;28;20029;-68
2023/07/06 06:05:31;;;;;;;6.35;2.88;;;15.50;99.90;;;;;;5037676;28;20032;-68
2023/07/06 06:07:58;;;;;;;8.93;2.47;;;15.60;99.90;;;;;;5038439;28;20061;-67
2023/07/06 06:10:24;;;;;;;4.57;2.40;;;15.80;99.90;;;;;;5036961;28;20029;-68
2023/07/06 06:12:49;;;;;;;3.55;1.92;;;16.00;99.90;;;;;;5037510;28;20032;-69
2023/07/06 06:15:15;;;;;;;11.63;2.92;;;16.20;99.90;;;;;;5038738;28;20029;-67
2023/07/06 06:17:41;;;;;;;10.50;2.17;;;16.30;99.90;;;;;;5038294;28;20018;-68
2023/07/06 06:20:08;;;;;;;6.20;2.42;;;16.30;99.90;;;;;;5037368;28;20022;-68
2023/07/06 06:22:34;;;;;;;3.35;1.90;;;16.40;99.90;;;;;;5037321;28;20032;-68
2023/07/06 06:25:12;;;;;;;5.15;2.78;;;16.40;99.90;;;;;;5094479;28;20416;-67
2023/07/06 06:27:38;;;;;;;4.43;2.65;;;16.50;99.90;;;;;;5076684;28;20028;-67
2023/07/06 06:30:05;;;;;;;3.53;2.10;;;16.60;99.90;;;;;;5076702;28;20020;-67
2023/07/06 06:32:30;;;;;;;8.30;2.47;;;16.60;99.90;;;;;;5076771;28;20085;-67
2023/07/06 06:34:59;;;;;;;3.72;1.95;;;16.70;99.90;;;;;;5076607;28;20017;-68
2023/07/06 06:37:27;;;;;;;5.10;1.92;;;16.80;99.90;;;;;;5076876;28;20119;-67
2023/07/06 06:39:52;;;;;;;5.68;2.20;;;16.90;99.90;;;;;;5094356;28;20020;-67
2023/07/06 06:42:19;;;;;;;4.53;2.22;;;16.90;99.90;;;;;;5076480;28;20021;-67
2023/07/06 06:44:45;;;;;;;6.90;1.92;;;16.90;99.90;;;;;;5077179;28;20024;-67
2023/07/06 06:47:10;;;;;;;3.63;1.90;;;17.00;99.90;;;;;;5077651;28;20017;-67
2023/07/06 06:49:36;;;;;;;3.22;2.10;;;17.00;99.90;;;;;;5076534;28;20024;-67
2023/07/06 06:52:03;;;;;;;5.03;1.65;;;17.10;99.90;;;;;;5076707;28;20032;-67
2023/07/06 06:54:30;;;;;;;3.60;1.88;;;17.20;99.90;;;;;;5094219;28;20024;-67
2023/07/06 06:56:56;;;;;;;5.80;2.00;;;17.30;99.90;;;;;;5076323;28;20035;-67
2023/07/06 06:59:21;;;;;;;2.75;1.35;;;17.30;99.90;;;;;;5076302;28;20028;-67
2023/07/06 07:01:50;;;;;;;3.47;1.63;;;17.30;99.90;;;;;;5076132;28;20062;-67
2023/07/06 07:04:16;;;;;;;3.30;1.80;;;17.40;99.90;;;;;;5076076;28;20029;-67
2023/07/06 07:06:42;;;;;;;4.00;1.63;;;17.40;99.90;;;;;;5076324;28;20033;-67
2023/07/06 07:09:12;;;;;;;3.95;1.70;;;17.50;99.90;;;;;;5076001;28;20016;-67
2023/07/06 07:11:38;;;;;;;7.25;1.88;;;17.70;99.90;;;;;;5075949;28;20020;-67
2023/07/06 07:14:07;;;;;;;3.67;1.45;;;17.80;99.90;;;;;;5075723;28;20035;-67
2023/07/06 07:16:34;;;;;;;3.83;1.67;;;17.90;99.90;;;;;;5075939;28;20020;-68
2023/07/06 07:19:00;;;;;;;2.05;1.35;;;18.00;99.90;;;;;;5093531;28;20020;-67
2023/07/06 07:21:26;;;;;;;2.78;1.70;;;18.10;99.90;;;;;;5076280;28;20025;-68
2023/07/06 07:23:51;;;;;;;1.77;1.33;;;18.00;99.90;;;;;;5093338;28;20084;-67
2023/07/06 07:26:19;;;;;;;4.72;1.80;;;18.10;99.90;;;;;;5075436;28;20040;-68
2023/07/06 07:28:50;;;;;;;4.60;1.70;;;18.20;99.90;;;;;;5075576;28;20069;-68
2023/07/06 07:31:17;;;;;;;2.00;1.25;;;18.20;99.90;;;;;;5093328;28;20076;-68
2023/07/06 07:33:44;;;;;;;2.53;1.50;;;18.20;99.90;;;;;;5075847;28;20034;-67
2023/07/06 07:36:12;;;;;;;3.45;1.60;;;18.30;99.90;;;;;;5065148;28;20133;-67
2023/07/06 07:38:38;;;;;;;4.00;1.40;;;18.30;99.90;;;;;;5063012;28;20024;-68
2023/07/06 07:41:06;;;;;;;2.78;1.23;;;18.20;99.90;;;;;;5062885;28;20035;-69
2023/07/06 07:43:34;;;;;;;7.80;1.60;;;18.30;99.90;;;;;;5079559;28;20051;-68
2023/07/06 07:46:05;;;;;;;5.57;1.67;;;18.40;99.90;;;;;;5079608;28;20021;-67
2023/07/06 07:48:37;;;;;;;;;;;18.50;99.90;;;;;;5063188;28;20069;-68
2023/07/06 07:51:08;;;;;;;5.88;1.33;;;18.50;99.90;;;;;;5062141;28;19908;-67
2023/07/06 07:53:35;;;;;;;4.07;1.40;;;18.50;99.90;;;;;;5079999;28;20036;-68
2023/07/06 07:56:04;;;;;;;7.55;1.65;;;18.50;99.90;;;;;;5062243;28;20269;-68
2023/07/06 07:58:31;;;;;;;4.63;1.45;;;18.60;99.90;;;;;;5061701;28;20032;-68
2023/07/06 08:00:57;;;;;;;2.65;1.52;;;18.50;99.90;;;;;;5061634;28;20052;-67
2023/07/06 08:03:24;;;;;;;2.30;1.30;;;18.60;99.90;;;;;;5062583;28;20027;-68
2023/07/06 08:05:58;;;;;;;1.85;1.30;;;18.70;99.90;;;;;;5061675;28;20082;-68
2023/07/06 08:08:24;;;;;;;4.30;1.52;;;18.70;99.90;;;;;;5079108;28;20047;-67
2023/07/06 08:10:50;;;;;;;2.85;1.10;;;18.90;99.90;;;;;;5061539;28;20025;-68
2023/07/06 08:13:17;;;;;;;2.45;1.25;;;19.00;99.90;;;;;;5061498;28;20047;-68
2023/07/06 08:15:44;;;;;;;3.30;1.95;;;19.10;99.90;;;;;;5062325;28;20024;-68
2023/07/06 08:18:10;;;;;;;1.77;1.08;;;19.10;99.90;;;;;;5062159;28;20028;-67
2023/07/06 08:20:37;;;;;;;4.78;1.02;;;19.20;99.90;;;;;;5061191;28;20033;-68
2023/07/06 08:23:06;;;;;;;3.85;1.50;;;19.20;99.90;;;;;;5061508;28;20028;-68
2023/07/06 08:25:37;;;;;;;3.58;1.23;;;19.30;99.90;;;;;;5079179;28;20020;-67
2023/07/06 08:28:03;;;;;;;4.10;1.45;;;19.30;99.90;;;;;;5061185;28;20020;-68
2023/07/06 08:30:29;;;;;;;2.28;1.08;;;19.40;99.90;;;;;;5061190;28;20092;-68
2023/07/06 08:32:55;;;;;;;4.70;1.10;;;19.40;99.90;;;;;;5061761;28;20048;-67
2023/07/06 08:35:21;;;;;;;1.70;0.70;;;19.60;99.90;;;;;;5061085;28;20107;-67
2023/07/06 08:37:46;;;;;;;3.28;1.00;;;19.70;99.90;;;;;;5061011;28;20055;-67
2023/07/06 08:40:17;;;;;;;7.50;1.13;;;19.80;99.90;;;;;;5061234;28;20055;-68
2023/07/06 08:42:47;;;;;;;2.15;1.40;;;19.90;99.90;;;;;;5061469;28;20017;-68
2023/07/06 08:45:21;;;;;;;4.78;1.27;;;19.90;99.90;;;;;;5061774;28;20024;-67
2023/07/06 08:47:47;;;;;;;15.77;1.60;;;19.90;99.90;;;;;;5060924;28;20020;-69
2023/07/06 08:50:15;;;;;;;4.78;1.00;;;19.80;99.90;;;;;;5060642;28;20040;-68
2023/07/06 08:52:42;;;;;;;3.08;1.60;;;19.80;99.90;;;;;;5060943;28;20070;-68
2023/07/06 08:55:16;;;;;;;5.93;1.38;;;20.00;99.90;;;;;;5078271;28;20100;-68
2023/07/06 08:57:45;;;;;;;2.13;1.08;;;20.00;99.90;;;;;;5061510;28;20031;-68
2023/07/06 09:00:22;;;;;;;4.63;1.38;;;20.10;99.90;;;;;;5061184;28;20024;-68
2023/07/06 09:02:49;;;;;;;2.17;1.00;;;20.10;99.90;;;;;;5062480;28;20048;-74
2023/07/06 09:05:16;;;;;;;2.50;0.90;;;20.10;99.90;;;;;;5078329;28;20108;-74
2023/07/06 09:07:45;;;;;;;3.97;1.27;;;20.10;99.90;;;;;;5060271;28;20158;-74
2023/07/06 09:10:17;;;;;;;2.50;0.93;;;20.30;99.90;;;;;;5078064;28;20122;-73
2023/07/06 09:12:43;;;;;;;2.85;1.13;;;20.40;99.90;;;;;;5060274;28;20107;-76
2023/07/06 09:15:09;;;;;;;1.42;0.90;;;20.30;99.90;;;;;;5061209;28;20028;-77
2023/07/06 09:17:47;;;;;;;2.13;1.05;;;20.40;99.90;;;;;;5060444;28;20020;-75
2023/07/06 09:20:14;;;;;;;3.97;1.10;;;20.50;99.90;;;;;;5060136;28;20032;-77
2023/07/06 09:22:41;;;;;;;3.25;1.23;;;20.70;99.90;;;;;;5060865;28;20080;-77
2023/07/06 09:25:25;;;;;;;2.78;1.08;;;20.80;99.90;;;;;;5060187;28;20036;-76
2023/07/06 09:27:51;;;;;;;4.72;1.20;;;20.90;99.90;;;;;;5060387;28;20021;-76
2023/07/06 09:30:29;;;;;;;1.35;0.98;;;20.90;99.90;;;;;;5060308;28;20017;-76
2023/07/06 09:33:13;;;;;;;3.60;1.20;;;20.90;99.90;;;;;;5061147;28;20075;-74
2023/07/06 09:35:39;;;;;;;2.70;1.20;;;21.00;99.90;;;;;;5060466;28;20085;-73
2023/07/06 09:38:06;;;;;;;1.23;0.88;;;20.90;99.90;;;;;;5060197;28;20021;-73
2023/07/06 09:40:32;;;;;;;1.75;0.85;;;21.10;99.90;;;;;;5059991;28;20047;-73
2023/07/06 09:42:58;;;;;;;3.10;0.90;;;21.10;99.90;;;;;;5059961;28;20023;-73
2023/07/06 09:45:29;;;;;;;2.35;1.10;;;21.10;99.90;;;;;;5060134;28;20016;-73
2023/07/06 09:48:03;;;;;;;;;;;21.20;99.90;;;;;;5060317;28;20020;-73
2023/07/06 09:50:39;;;;;;;5.25;1.42;;;21.30;99.90;;;;;;5059781;28;19912;-74
2023/07/06 09:53:13;;;;;;;7.20;1.10;;;21.30;99.90;;;;;;5060186;28;20016;-73
2023/07/06 09:55:39;;;;;;;1.77;0.77;;;21.40;99.90;;;;;;5059612;28;20028;-73
2023/07/06 09:58:27;;;;;;;3.80;1.00;;;21.50;99.90;;;;;;5059950;28;20020;-73
2023/07/06 10:01:01;;;;;;;3.08;0.98;;;21.60;99.90;;;;;;5059827;28;20066;-73
2023/07/06 10:04:11;;;;;;;2.42;1.00;;;21.80;99.90;;;;;;5060106;28;20024;-74
2023/07/06 10:06:56;;;;;;;2.03;0.85;;;21.90;99.90;;;;;;5060288;28;20016;-73
2023/07/06 10:09:28;;;;;;;3.20;0.80;;;22.00;99.90;;;;;;5060330;28;20016;-71
2023/07/06 10:11:55;;;;;;;2.28;1.25;;;22.00;99.90;;;;;;5059891;28;20016;-73
2023/07/06 10:14:48;;;;;;;1.90;1.10;;;22.00;99.90;;;;;;5059349;28;20086;-73
2023/07/06 10:17:42;;;;;;;3.15;1.38;;;22.20;99.90;;;;;;5060254;28;20032;-73
2023/07/06 10:20:21;;;;;;;2.65;1.02;;;22.30;97.60;;;;;;5059413;28;20020;-73
2023/07/06 10:23:04;;;;;;;2.92;1.10;;;22.40;96.80;;;;;;5059705;28;20116;-73
2023/07/06 10:25:42;;;;;;;1.67;0.80;;;22.40;96.10;;;;;;5060113;28;20025;-73
2023/07/06 10:28:25;;;;;;;4.97;1.42;;;22.50;95.00;;;;;;5060013;28;20032;-73
2023/07/06 10:30:55;;;;;;;3.58;1.23;;;22.70;95.70;;;;;;5060033;28;20093;-73
2023/07/06 10:33:20;;;;;;;2.60;1.20;;;22.80;95.60;;;;;;5059493;28;20031;-73
2023/07/06 10:35:49;;;;;;;1.80;0.90;;;23.00;95.70;;;;;;5060106;28;20036;-73
2023/07/06 10:38:16;;;;;;;1.42;1.00;;;23.20;95.20;;;;;;5059388;28;20024;-73
2023/07/06 10:40:42;;;;;;;0.75;0.73;;;23.30;94.50;;;;;;5076656;28;20025;-73
2023/07/06 10:43:14;;;;;;;1.75;0.85;;;23.20;94.10;;;;;;5059059;28;20047;-73
2023/07/06 10:45:59;;;;;;;1.63;0.93;;;23.70;92.80;;;;;;5076830;28;20032;-74
2023/07/06 10:48:24;;;;;;;3.38;0.80;;;24.20;92.00;;;;;;5076977;28;20016;-73
2023/07/06 10:50:57;;;;;;;1.50;1.00;;;24.80;90.00;;;;;;5059107;28;20020;-73
2023/07/06 10:53:39;;;;;;;1.40;0.80;;;25.20;87.80;;;;;;5058918;28;20063;-73
2023/07/06 10:56:19;;;;;;;1.80;1.08;;;25.70;88.30;;;;;;5059937;28;20030;-73
2023/07/06 10:58:57;;;;;;;1.98;1.10;;;25.60;86.70;;;;;;5076661;28;20103;-73
2023/07/06 11:01:40;;;;;;;1.80;0.90;;;26.20;81.60;;;;;;5077109;28;20020;-71
2023/07/06 11:04:40;;;;;;;2.88;0.93;;;26.80;77.10;;;;;;5058745;28;20036;-71
2023/07/06 11:07:29;;;;;;;3.35;1.23;;;27.20;76.00;;;;;;5076600;28;20021;-71
2023/07/06 11:10:21;;;;;;;2.25;1.00;;;27.30;76.00;;;;;;5058446;28;20074;-71
2023/07/06 11:12:57;;;;;;;1.52;0.90;;;27.50;75.30;;;;;;5026188;28;20032;-71
2023/07/06 11:15:35;;;;;;;1.70;0.77;;;27.60;74.20;;;;;;5062588;28;20017;-71
2023/07/06 11:18:29;;;;;;;2.55;0.82;;;27.90;74.40;;;;;;5080185;28;20016;-72
2023/07/06 11:21:04;;;;;;;4.03;1.40;;;27.80;73.00;;;;;;5063354;28;20025;-71
2023/07/06 11:23:48;;;;;;;3.00;0.90;;;28.30;70.90;;;;;;5062282;28;20082;-72
2023/07/06 11:26:26;;;;;;;1.73;1.00;;;28.00;69.40;;;;;;5062455;28;20025;-72
2023/07/06 11:28:53;;;;;;;2.05;1.35;;;27.90;69.50;;;;;;5063442;28;20024;-72
2023/07/06 11:31:47;;;;;;;6.57;0.95;;;28.60;67.30;;;;;;5062514;28;20063;-72
2023/07/06 11:34:37;;;;;;;2.95;1.10;;;28.30;69.90;;;;;;5062303;28;20028;-73
2023/07/06 11:37:32;;;;;;;2.00;1.20;;;28.20;71.20;;;;;;5079810;28;20103;-72
2023/07/06 11:40:22;;;;;;;3.05;1.30;;;28.20;69.40;;;;;;5062660;28;20024;-72
2023/07/06 11:43:03;;;;;;;1.98;1.23;;;29.70;63.70;;;;;;5079956;28;20024;-72
2023/07/06 11:46:01;;;;;;;1.95;1.10;;;30.60;61.70;;;;;;5079906;28;20033;-72
2023/07/06 11:48:38;;;;;;;1.25;1.05;;;30.80;59.90;;;;;;5062201;28;20022;-72
2023/07/06 11:51:05;;;;;;;3.38;1.38;;;30.20;59.90;;;;;;5062907;28;20020;-72
2023/07/06 11:53:44;;;;;;;1.38;1.23;;;30.60;57.80;;;;;;5061939;28;20033;-72
2023/07/06 11:56:32;;;;;;;2.40;1.02;;;31.00;57.30;;;;;;5062316;28;20020;-73
2023/07/06 11:59:01;;;;;;;1.85;0.95;;;31.20;57.60;;;;;;5061785;28;20024;-73
2023/07/06 12:01:42;;;;;;;6.82;2.20;;;31.40;57.50;;;;;;5079423;28;20025;-74
2023/07/06 12:04:23;;;;;;;3.30;0.80;;;31.20;58.00;;;;;;5061821;28;20029;-73
2023/07/06 12:06:50;;;;;;;3.42;1.17;;;31.40;57.80;;;;;;5061763;28;20027;-73
2023/07/06 12:09:23;;;;;;;3.78;1.25;;;31.70;57.00;;;;;;5062047;28;20021;-72
2023/07/06 12:11:57;;;;;;;2.08;1.30;;;31.80;55.50;;;;;;5062289;28;20079;-73
2023/07/06 12:14:23;;;;;;;1.58;0.90;;;31.30;54.80;;;;;;5061520;28;20052;-72
2023/07/06 12:16:51;;;;;;;2.58;0.80;;;30.70;55.20;;;;;;5062281;28;20090;-72
2023/07/06 12:19:20;;;;;;;2.72;1.10;;;30.00;55.70;;;;;;5061776;28;20078;-73
2023/07/06 12:21:53;;;;;;;1.75;1.08;;;29.50;57.30;;;;;;5061699;28;20021;-73
2023/07/06 12:24:24;;;;;;;2.58;1.10;;;29.40;57.90;;;;;;5061476;28;20029;-72
2023/07/06 12:26:58;;;;;;;0.88;0.80;;;30.00;55.70;;;;;;5062462;28;20078;-72
2023/07/06 12:29:27;;;;;;;1.40;0.70;;;29.50;56.50;;;;;;5061284;28;20021;-72
2023/07/06 12:31:57;;;;;;;1.98;1.13;;;28.90;56.40;;;;;;5078759;28;20017;-72
2023/07/06 12:34:29;;;;;;;2.05;1.00;;;28.30;57.40;;;;;;5079386;28;20024;-72
2023/07/06 12:37:00;;;;;;;1.25;0.80;;;28.20;57.60;;;;;;5061140;28;20029;-72
2023/07/06 12:39:27;;;;;;;;;;;28.10;57.90;;;;;;5061653;28;20031;-72
2023/07/06 12:41:53;;;;;;;1.55;1.05;;;28.00;57.90;;;;;;5060929;28;19914;-73
2023/07/06 12:44:22;;;;;;;3.47;1.70;;;27.80;58.00;;;;;;5061215;28;20063;-72
2023/07/06 12:46:52;;;;;;;5.25;1.00;;;27.80;58.80;;;;;;5061042;28;20017;-72
2023/07/06 12:49:23;;;;;;;0.93;0.77;;;27.60;57.40;;;;;;5060873;28;20024;-72
2023/07/06 12:51:54;;;;;;;0.75;0.65;;;27.40;58.10;;;;;;5060712;28;20032;-72
2023/07/06 12:54:27;;;;;;;;;;;27.30;58.60;;;;;;5078881;28;20028;-73
2023/07/06 12:56:58;;;;;;;2.67;1.20;;;27.20;57.70;;;;;;5078537;28;19904;-72
2023/07/06 12:59:25;;;;;;;2.15;0.90;;;27.30;57.20;;;;;;5060815;28;20028;-72
2023/07/06 13:01:52;;;;;;;1.58;1.00;;;27.20;57.20;;;;;;5078178;28;20103;-72
2023/07/06 13:04:17;;;;;;;0.95;0.88;;;27.40;56.40;;;;;;5078187;28;20024;-72